WEATHER/FLIGHT PLANNING

Hattiesburg Radar

 

 

 

 

Weather Links

Flight Planning Links

 

METAR

2017/12/16 00:53 KHBG 160053Z AUTO 00000KT 10SM CLR 06/00 A3026 RMK AO2 SLP248 T00560000

TAF

2017/12/15 18:27 TAF KHBG 151723Z 1518/1618 36007KT P6SM BKN100